sensor_id;sensor_type;location;lat;lon;timestamp;P1;durP1;ratioP1;P2;durP2;ratioP2
5819;SDS011;2936;47.348;9.640;2023-04-08T00:02:16;8.02;;;7.43;;
5819;SDS011;2936;47.348;9.640;2023-04-08T00:04:44;8.13;;;7.53;;
5819;SDS011;2936;47.348;9.640;2023-04-08T00:07:12;9.18;;;8.32;;
5819;SDS011;2936;47.348;9.640;2023-04-08T00:09:39;9.43;;;8.43;;
5819;SDS011;2936;47.348;9.640;2023-04-08T00:12:07;9.77;;;7.53;;
5819;SDS011;2936;47.348;9.640;2023-04-08T00:14:34;9.05;;;8.25;;
5819;SDS011;2936;47.348;9.640;2023-04-08T00:17:03;11.02;;;7.20;;
5819;SDS011;2936;47.348;9.640;2023-04-08T00:19:31;7.70;;;7.10;;
5819;SDS011;2936;47.348;9.640;2023-04-08T00:22:00;8.93;;;8.00;;
5819;SDS011;2936;47.348;9.640;2023-04-08T00:24:27;11.18;;;9.13;;
5819;SDS011;2936;47.348;9.640;2023-04-08T00:26:56;9.27;;;8.38;;
5819;SDS011;2936;47.348;9.640;2023-04-08T00:29:25;13.20;;;8.93;;
5819;SDS011;2936;47.348;9.640;2023-04-08T00:32:13;8.75;;;7.95;;
5819;SDS011;2936;47.348;9.640;2023-04-08T00:34:42;8.55;;;7.75;;
5819;SDS011;2936;47.348;9.640;2023-04-08T00:37:09;7.78;;;7.07;;
5819;SDS011;2936;47.348;9.640;2023-04-08T00:39:37;9.60;;;7.47;;
5819;SDS011;2936;47.348;9.640;2023-04-08T00:42:06;8.07;;;7.40;;
5819;SDS011;2936;47.348;9.640;2023-04-08T00:44:34;8.30;;;7.60;;
5819;SDS011;2936;47.348;9.640;2023-04-08T00:47:02;8.57;;;7.80;;
5819;SDS011;2936;47.348;9.640;2023-04-08T00:52:31;8.38;;;7.75;;
5819;SDS011;2936;47.348;9.640;2023-04-08T00:55:00;9.10;;;8.30;;
5819;SDS011;2936;47.348;9.640;2023-04-08T00:57:27;7.72;;;7.13;;
5819;SDS011;2936;47.348;9.640;2023-04-08T00:59:55;8.80;;;8.00;;
5819;SDS011;2936;47.348;9.640;2023-04-08T01:02:25;8.05;;;7.22;;
5819;SDS011;2936;47.348;9.640;2023-04-08T01:04:56;17.25;;;8.55;;
5819;SDS011;2936;47.348;9.640;2023-04-08T01:07:26;10.30;;;9.25;;
5819;SDS011;2936;47.348;9.640;2023-04-08T01:09:56;9.80;;;8.90;;
5819;SDS011;2936;47.348;9.640;2023-04-08T01:12:25;9.80;;;8.40;;
5819;SDS011;2936;47.348;9.640;2023-04-08T01:14:55;9.65;;;8.80;;
5819;SDS011;2936;47.348;9.640;2023-04-08T01:17:23;9.90;;;8.90;;
5819;SDS011;2936;47.348;9.640;2023-04-08T01:19:51;10.18;;;9.18;;
5819;SDS011;2936;47.348;9.640;2023-04-08T01:22:23;9.27;;;8.25;;
5819;SDS011;2936;47.348;9.640;2023-04-08T01:24:56;9.10;;;8.30;;
5819;SDS011;2936;47.348;9.640;2023-04-08T01:27:27;9.48;;;8.57;;
5819;SDS011;2936;47.348;9.640;2023-04-08T01:29:54;9.90;;;8.25;;
5819;SDS011;2936;47.348;9.640;2023-04-08T01:32:23;9.25;;;8.35;;
5819;SDS011;2936;47.348;9.640;2023-04-08T01:34:51;7.80;;;7.20;;
5819;SDS011;2936;47.348;9.640;2023-04-08T01:37:19;8.50;;;7.80;;
5819;SDS011;2936;47.348;9.640;2023-04-08T01:39:47;7.45;;;6.85;;
5819;SDS011;2936;47.348;9.640;2023-04-08T01:42:15;7.78;;;7.10;;
5819;SDS011;2936;47.348;9.640;2023-04-08T01:44:44;7.30;;;6.80;;
5819;SDS011;2936;47.348;9.640;2023-04-08T01:47:12;7.20;;;6.70;;
5819;SDS011;2936;47.348;9.640;2023-04-08T01:49:40;6.53;;;6.03;;
5819;SDS011;2936;47.348;9.640;2023-04-08T01:52:07;6.22;;;5.78;;
5819;SDS011;2936;47.348;9.640;2023-04-08T01:54:35;11.73;;;5.80;;
5819;SDS011;2936;47.348;9.640;2023-04-08T01:57:03;6.38;;;5.85;;
5819;SDS011;2936;47.348;9.640;2023-04-08T01:59:33;6.90;;;6.28;;
5819;SDS011;2936;47.348;9.640;2023-04-08T02:02:03;5.90;;;5.50;;
5819;SDS011;2936;47.348;9.640;2023-04-08T02:04:32;6.68;;;6.18;;
5819;SDS011;2936;47.348;9.640;2023-04-08T02:07:00;6.70;;;6.20;;
5819;SDS011;2936;47.348;9.640;2023-04-08T02:09:27;6.90;;;6.40;;
5819;SDS011;2936;47.348;9.640;2023-04-08T02:11:55;6.82;;;6.22;;
5819;SDS011;2936;47.348;9.640;2023-04-08T02:14:23;6.22;;;5.82;;
5819;SDS011;2936;47.348;9.640;2023-04-08T02:16:52;6.10;;;5.50;;
5819;SDS011;2936;47.348;9.640;2023-04-08T02:19:23;6.10;;;5.55;;
5819;SDS011;2936;47.348;9.640;2023-04-08T02:21:56;5.80;;;5.50;;
5819;SDS011;2936;47.348;9.640;2023-04-08T02:24:24;6.75;;;6.05;;
5819;SDS011;2936;47.348;9.640;2023-04-08T02:26:52;6.80;;;6.30;;
5819;SDS011;2936;47.348;9.640;2023-04-08T02:29:21;6.10;;;5.70;;
5819;SDS011;2936;47.348;9.640;2023-04-08T02:31:50;7.25;;;6.65;;
5819;SDS011;2936;47.348;9.640;2023-04-08T02:34:18;6.28;;;5.88;;
5819;SDS011;2936;47.348;9.640;2023-04-08T02:36:48;7.13;;;6.38;;
5819;SDS011;2936;47.348;9.640;2023-04-08T02:39:16;6.80;;;6.38;;
5819;SDS011;2936;47.348;9.640;2023-04-08T02:41:44;6.97;;;6.25;;
5819;SDS011;2936;47.348;9.640;2023-04-08T02:44:11;7.05;;;6.53;;
5819;SDS011;2936;47.348;9.640;2023-04-08T02:46:38;7.15;;;6.50;;
5819;SDS011;2936;47.348;9.640;2023-04-08T02:49:06;6.95;;;6.35;;
5819;SDS011;2936;47.348;9.640;2023-04-08T02:51:33;7.78;;;6.78;;
5819;SDS011;2936;47.348;9.640;2023-04-08T02:54:02;7.47;;;6.90;;
5819;SDS011;2936;47.348;9.640;2023-04-08T02:56:30;7.55;;;6.85;;
5819;SDS011;2936;47.348;9.640;2023-04-08T02:58:58;8.65;;;7.95;;
5819;SDS011;2936;47.348;9.640;2023-04-08T03:01:25;8.15;;;7.53;;
5819;SDS011;2936;47.348;9.640;2023-04-08T03:03:52;7.95;;;7.35;;
5819;SDS011;2936;47.348;9.640;2023-04-08T03:06:20;8.93;;;8.05;;
5819;SDS011;2936;47.348;9.640;2023-04-08T03:08:47;8.77;;;7.88;;
5819;SDS011;2936;47.348;9.640;2023-04-08T03:11:16;8.65;;;7.85;;
5819;SDS011;2936;47.348;9.640;2023-04-08T03:13:44;9.90;;;7.85;;
5819;SDS011;2936;47.348;9.640;2023-04-08T03:16:12;8.90;;;8.07;;
5819;SDS011;2936;47.348;9.640;2023-04-08T03:18:39;9.18;;;8.38;;
5819;SDS011;2936;47.348;9.640;2023-04-08T03:21:07;8.35;;;7.75;;
5819;SDS011;2936;47.348;9.640;2023-04-08T03:23:34;8.80;;;8.10;;
5819;SDS011;2936;47.348;9.640;2023-04-08T03:26:02;9.60;;;8.73;;
5819;SDS011;2936;47.348;9.640;2023-04-08T03:28:31;9.00;;;8.20;;
5819;SDS011;2936;47.348;9.640;2023-04-08T03:30:58;8.43;;;7.82;;
5819;SDS011;2936;47.348;9.640;2023-04-08T03:33:26;11.25;;;8.25;;
5819;SDS011;2936;47.348;9.640;2023-04-08T03:35:53;6.50;;;6.10;;
5819;SDS011;2936;47.348;9.640;2023-04-08T03:38:21;7.30;;;6.70;;
5819;SDS011;2936;47.348;9.640;2023-04-08T03:40:48;7.18;;;6.50;;
5819;SDS011;2936;47.348;9.640;2023-04-08T03:43:16;7.95;;;7.25;;
5819;SDS011;2936;47.348;9.640;2023-04-08T03:45:47;7.88;;;7.25;;
5819;SDS011;2936;47.348;9.640;2023-04-08T03:48:15;9.13;;;7.82;;
5819;SDS011;2936;47.348;9.640;2023-04-08T03:50:42;10.68;;;9.80;;
5819;SDS011;2936;47.348;9.640;2023-04-08T03:53:10;9.52;;;8.52;;
5819;SDS011;2936;47.348;9.640;2023-04-08T03:55:37;9.80;;;8.90;;
5819;SDS011;2936;47.348;9.640;2023-04-08T03:58:05;10.02;;;9.13;;
5819;SDS011;2936;47.348;9.640;2023-04-08T04:00:32;9.85;;;9.10;;
5819;SDS011;2936;47.348;9.640;2023-04-08T04:03:02;10.43;;;9.43;;
5819;SDS011;2936;47.348;9.640;2023-04-08T04:05:30;10.02;;;9.13;;
5819;SDS011;2936;47.348;9.640;2023-04-08T04:07:58;10.00;;;9.10;;
5819;SDS011;2936;47.348;9.640;2023-04-08T04:10:25;9.55;;;8.75;;
5819;SDS011;2936;47.348;9.640;2023-04-08T04:12:53;12.80;;;8.50;;
5819;SDS011;2936;47.348;9.640;2023-04-08T04:15:20;8.40;;;7.60;;
5819;SDS011;2936;47.348;9.640;2023-04-08T04:17:48;8.90;;;8.00;;
5819;SDS011;2936;47.348;9.640;2023-04-08T04:20:17;9.30;;;8.40;;
5819;SDS011;2936;47.348;9.640;2023-04-08T04:22:45;9.80;;;8.80;;
5819;SDS011;2936;47.348;9.640;2023-04-08T04:25:13;8.60;;;7.85;;
5819;SDS011;2936;47.348;9.640;2023-04-08T04:27:40;8.90;;;7.65;;
5819;SDS011;2936;47.348;9.640;2023-04-08T04:30:08;8.73;;;7.80;;
5819;SDS011;2936;47.348;9.640;2023-04-08T04:32:39;9.93;;;8.93;;
5819;SDS011;2936;47.348;9.640;2023-04-08T04:35:07;11.50;;;10.35;;
5819;SDS011;2936;47.348;9.640;2023-04-08T04:37:36;12.50;;;10.70;;
5819;SDS011;2936;47.348;9.640;2023-04-08T04:40:04;14.88;;;9.98;;
5819;SDS011;2936;47.348;9.640;2023-04-08T04:42:31;14.98;;;11.00;;
5819;SDS011;2936;47.348;9.640;2023-04-08T04:44:59;13.70;;;11.32;;
5819;SDS011;2936;47.348;9.640;2023-04-08T04:47:27;14.95;;;12.65;;
5819;SDS011;2936;47.348;9.640;2023-04-08T04:49:56;13.98;;;12.30;;
5819;SDS011;2936;47.348;9.640;2023-04-08T04:52:24;14.40;;;12.55;;
5819;SDS011;2936;47.348;9.640;2023-04-08T04:54:53;19.88;;;12.80;;
5819;SDS011;2936;47.348;9.640;2023-04-08T04:57:21;16.23;;;13.48;;
5819;SDS011;2936;47.348;9.640;2023-04-08T04:59:48;19.75;;;13.45;;
5819;SDS011;2936;47.348;9.640;2023-04-08T05:02:15;17.75;;;14.10;;
5819;SDS011;2936;47.348;9.640;2023-04-08T05:04:43;17.30;;;14.38;;
5819;SDS011;2936;47.348;9.640;2023-04-08T05:07:10;18.48;;;15.23;;
5819;SDS011;2936;47.348;9.640;2023-04-08T05:09:38;16.40;;;13.55;;
5819;SDS011;2936;47.348;9.640;2023-04-08T05:12:07;15.82;;;13.18;;
5819;SDS011;2936;47.348;9.640;2023-04-08T05:14:34;15.05;;;13.45;;
5819;SDS011;2936;47.348;9.640;2023-04-08T05:17:02;14.18;;;12.05;;
5819;SDS011;2936;47.348;9.640;2023-04-08T05:19:30;16.55;;;13.50;;
5819;SDS011;2936;47.348;9.640;2023-04-08T05:21:58;15.00;;;12.00;;
5819;SDS011;2936;47.348;9.640;2023-04-08T05:24:25;22.10;;;13.00;;
5819;SDS011;2936;47.348;9.640;2023-04-08T05:26:53;14.80;;;13.13;;
5819;SDS011;2936;47.348;9.640;2023-04-08T05:29:23;14.60;;;12.80;;
5819;SDS011;2936;47.348;9.640;2023-04-08T05:31:51;13.23;;;11.90;;
5819;SDS011;2936;47.348;9.640;2023-04-08T05:34:20;13.65;;;12.15;;
5819;SDS011;2936;47.348;9.640;2023-04-08T05:36:48;13.48;;;11.40;;
5819;SDS011;2936;47.348;9.640;2023-04-08T05:39:17;13.30;;;11.90;;
5819;SDS011;2936;47.348;9.640;2023-04-08T05:41:44;15.60;;;13.35;;
5819;SDS011;2936;47.348;9.640;2023-04-08T05:44:12;15.98;;;12.88;;
5819;SDS011;2936;47.348;9.640;2023-04-08T05:46:41;16.73;;;14.07;;
5819;SDS011;2936;47.348;9.640;2023-04-08T05:49:09;21.77;;;15.63;;
5819;SDS011;2936;47.348;9.640;2023-04-08T05:51:36;20.27;;;15.07;;
5819;SDS011;2936;47.348;9.640;2023-04-08T05:54:04;22.08;;;16.00;;
5819;SDS011;2936;47.348;9.640;2023-04-08T05:56:31;15.95;;;13.75;;
5819;SDS011;2936;47.348;9.640;2023-04-08T05:58:59;18.30;;;13.60;;
5819;SDS011;2936;47.348;9.640;2023-04-08T06:01:26;21.48;;;12.68;;
5819;SDS011;2936;47.348;9.640;2023-04-08T06:03:55;13.15;;;11.77;;
5819;SDS011;2936;47.348;9.640;2023-04-08T06:06:22;14.55;;;13.02;;
5819;SDS011;2936;47.348;9.640;2023-04-08T06:08:50;13.98;;;12.10;;
5819;SDS011;2936;47.348;9.640;2023-04-08T06:11:18;14.20;;;12.07;;
5819;SDS011;2936;47.348;9.640;2023-04-08T06:13:46;17.65;;;13.63;;
5819;SDS011;2936;47.348;9.640;2023-04-08T06:16:14;16.20;;;13.95;;
5819;SDS011;2936;47.348;9.640;2023-04-08T06:18:42;18.17;;;14.75;;
5819;SDS011;2936;47.348;9.640;2023-04-08T06:21:11;15.77;;;13.98;;
5819;SDS011;2936;47.348;9.640;2023-04-08T06:23:38;19.42;;;15.20;;
5819;SDS011;2936;47.348;9.640;2023-04-08T06:26:06;27.23;;;15.18;;
5819;SDS011;2936;47.348;9.640;2023-04-08T06:28:33;13.75;;;12.20;;
5819;SDS011;2936;47.348;9.640;2023-04-08T06:31:01;15.60;;;12.55;;
5819;SDS011;2936;47.348;9.640;2023-04-08T06:33:28;13.15;;;11.25;;
5819;SDS011;2936;47.348;9.640;2023-04-08T06:36:02;12.43;;;10.77;;
5819;SDS011;2936;47.348;9.640;2023-04-08T06:38:31;14.85;;;10.98;;
5819;SDS011;2936;47.348;9.640;2023-04-08T06:41:00;11.30;;;10.10;;
5819;SDS011;2936;47.348;9.640;2023-04-08T06:43:28;10.90;;;9.88;;
5819;SDS011;2936;47.348;9.640;2023-04-08T06:45:56;11.38;;;9.13;;
5819;SDS011;2936;47.348;9.640;2023-04-08T06:48:23;11.75;;;10.60;;
5819;SDS011;2936;47.348;9.640;2023-04-08T06:50:53;9.65;;;8.68;;
5819;SDS011;2936;47.348;9.640;2023-04-08T06:53:21;12.05;;;9.52;;
5819;SDS011;2936;47.348;9.640;2023-04-08T06:55:51;9.40;;;8.50;;
5819;SDS011;2936;47.348;9.640;2023-04-08T06:58:18;24.38;;;12.50;;
5819;SDS011;2936;47.348;9.640;2023-04-08T07:00:46;9.07;;;7.35;;
5819;SDS011;2936;47.348;9.640;2023-04-08T07:03:13;8.05;;;7.07;;
5819;SDS011;2936;47.348;9.640;2023-04-08T07:05:41;8.18;;;6.35;;
5819;SDS011;2936;47.348;9.640;2023-04-08T07:08:08;5.72;;;5.43;;
5819;SDS011;2936;47.348;9.640;2023-04-08T07:10:36;7.50;;;5.82;;
5819;SDS011;2936;47.348;9.640;2023-04-08T07:13:05;6.10;;;5.70;;
5819;SDS011;2936;47.348;9.640;2023-04-08T07:15:33;9.88;;;6.30;;
5819;SDS011;2936;47.348;9.640;2023-04-08T07:18:00;9.20;;;7.20;;
5819;SDS011;2936;47.348;9.640;2023-04-08T07:20:28;7.50;;;6.75;;
5819;SDS011;2936;47.348;9.640;2023-04-08T07:22:56;7.30;;;6.60;;
5819;SDS011;2936;47.348;9.640;2023-04-08T07:25:23;9.23;;;7.47;;
5819;SDS011;2936;47.348;9.640;2023-04-08T07:27:51;8.23;;;7.25;;
5819;SDS011;2936;47.348;9.640;2023-04-08T07:30:20;7.47;;;6.78;;
5819;SDS011;2936;47.348;9.640;2023-04-08T07:32:47;9.02;;;7.22;;
5819;SDS011;2936;47.348;9.640;2023-04-08T07:35:15;51.22;;;26.50;;
5819;SDS011;2936;47.348;9.640;2023-04-08T07:37:48;11.52;;;7.88;;
5819;SDS011;2936;47.348;9.640;2023-04-08T07:40:17;8.98;;;6.65;;
5819;SDS011;2936;47.348;9.640;2023-04-08T07:42:45;9.27;;;6.75;;
5819;SDS011;2936;47.348;9.640;2023-04-08T07:45:12;9.90;;;8.05;;
5819;SDS011;2936;47.348;9.640;2023-04-08T07:47:41;6.70;;;6.00;;
5819;SDS011;2936;47.348;9.640;2023-04-08T07:50:09;9.73;;;7.18;;
5819;SDS011;2936;47.348;9.640;2023-04-08T07:52:36;11.63;;;6.50;;
5819;SDS011;2936;47.348;9.640;2023-04-08T07:55:04;7.75;;;7.15;;
5819;SDS011;2936;47.348;9.640;2023-04-08T07:57:32;7.78;;;7.18;;
5819;SDS011;2936;47.348;9.640;2023-04-08T07:59:59;8.02;;;7.35;;
5819;SDS011;2936;47.348;9.640;2023-04-08T08:02:27;8.18;;;7.45;;
5819;SDS011;2936;47.348;9.640;2023-04-08T08:04:56;8.13;;;7.43;;
5819;SDS011;2936;47.348;9.640;2023-04-08T08:07:27;10.52;;;6.30;;
5819;SDS011;2936;47.348;9.640;2023-04-08T08:09:55;7.50;;;6.80;;
5819;SDS011;2936;47.348;9.640;2023-04-08T08:12:22;8.50;;;6.97;;
5819;SDS011;2936;47.348;9.640;2023-04-08T08:15:09;8.48;;;7.78;;
5819;SDS011;2936;47.348;9.640;2023-04-08T08:17:37;8.75;;;8.02;;
5819;SDS011;2936;47.348;9.640;2023-04-08T08:20:17;8.77;;;7.97;;
5819;SDS011;2936;47.348;9.640;2023-04-08T08:22:45;9.00;;;8.18;;
5819;SDS011;2936;47.348;9.640;2023-04-08T08:25:12;9.60;;;8.35;;
5819;SDS011;2936;47.348;9.640;2023-04-08T08:27:40;8.93;;;8.13;;
5819;SDS011;2936;47.348;9.640;2023-04-08T08:30:08;9.40;;;8.60;;
5819;SDS011;2936;47.348;9.640;2023-04-08T08:32:35;9.18;;;8.13;;
5819;SDS011;2936;47.348;9.640;2023-04-08T08:35:03;9.77;;;7.57;;
5819;SDS011;2936;47.348;9.640;2023-04-08T08:37:32;9.30;;;8.30;;
5819;SDS011;2936;47.348;9.640;2023-04-08T08:39:59;8.10;;;7.50;;
5819;SDS011;2936;47.348;9.640;2023-04-08T08:42:27;8.40;;;7.70;;
5819;SDS011;2936;47.348;9.640;2023-04-08T08:44:55;8.23;;;7.53;;
5819;SDS011;2936;47.348;9.640;2023-04-08T08:47:22;8.23;;;6.25;;
5819;SDS011;2936;47.348;9.640;2023-04-08T08:49:51;11.45;;;7.57;;
5819;SDS011;2936;47.348;9.640;2023-04-08T08:52:18;7.28;;;6.75;;
5819;SDS011;2936;47.348;9.640;2023-04-08T08:54:47;8.45;;;7.75;;
5819;SDS011;2936;47.348;9.640;2023-04-08T08:57:15;9.90;;;7.55;;
5819;SDS011;2936;47.348;9.640;2023-04-08T08:59:44;9.02;;;8.13;;
5819;SDS011;2936;47.348;9.640;2023-04-08T09:02:25;9.85;;;8.85;;
5819;SDS011;2936;47.348;9.640;2023-04-08T09:04:57;8.60;;;8.00;;
5819;SDS011;2936;47.348;9.640;2023-04-08T09:07:25;8.32;;;7.53;;
5819;SDS011;2936;47.348;9.640;2023-04-08T09:09:54;7.55;;;6.93;;
5819;SDS011;2936;47.348;9.640;2023-04-08T09:12:22;7.82;;;7.22;;
5819;SDS011;2936;47.348;9.640;2023-04-08T09:14:51;7.43;;;6.80;;
5819;SDS011;2936;47.348;9.640;2023-04-08T09:17:32;7.70;;;7.00;;
5819;SDS011;2936;47.348;9.640;2023-04-08T09:20:04;7.90;;;7.22;;
5819;SDS011;2936;47.348;9.640;2023-04-08T09:22:53;8.60;;;7.80;;
5819;SDS011;2936;47.348;9.640;2023-04-08T09:25:24;7.85;;;7.25;;
5819;SDS011;2936;47.348;9.640;2023-04-08T09:27:51;8.20;;;7.50;;
5819;SDS011;2936;47.348;9.640;2023-04-08T09:30:20;8.85;;;8.15;;
5819;SDS011;2936;47.348;9.640;2023-04-08T09:32:48;7.57;;;6.97;;
5819;SDS011;2936;47.348;9.640;2023-04-08T09:35:17;8.13;;;7.43;;
5819;SDS011;2936;47.348;9.640;2023-04-08T09:37:44;8.73;;;7.88;;
5819;SDS011;2936;47.348;9.640;2023-04-08T09:40:12;7.82;;;7.13;;
5819;SDS011;2936;47.348;9.640;2023-04-08T09:42:44;8.70;;;8.00;;
5819;SDS011;2936;47.348;9.640;2023-04-08T09:45:15;7.68;;;6.97;;
5819;SDS011;2936;47.348;9.640;2023-04-08T09:47:46;8.32;;;7.63;;
5819;SDS011;2936;47.348;9.640;2023-04-08T09:50:18;8.43;;;7.72;;
5819;SDS011;2936;47.348;9.640;2023-04-08T09:52:46;9.13;;;8.32;;
5819;SDS011;2936;47.348;9.640;2023-04-08T09:55:20;8.02;;;7.40;;
5819;SDS011;2936;47.348;9.640;2023-04-08T09:57:51;11.77;;;6.85;;
5819;SDS011;2936;47.348;9.640;2023-04-08T10:00:21;8.30;;;7.50;;
5819;SDS011;2936;47.348;9.640;2023-04-08T10:02:53;8.82;;;7.97;;
5819;SDS011;2936;47.348;9.640;2023-04-08T10:05:22;8.25;;;7.55;;
5819;SDS011;2936;47.348;9.640;2023-04-08T10:07:50;7.65;;;7.00;;
5819;SDS011;2936;47.348;9.640;2023-04-08T10:10:18;8.35;;;7.55;;
5819;SDS011;2936;47.348;9.640;2023-04-08T10:12:46;8.73;;;7.78;;
5819;SDS011;2936;47.348;9.640;2023-04-08T10:15:27;8.70;;;7.90;;
5819;SDS011;2936;47.348;9.640;2023-04-08T10:17:56;8.50;;;7.72;;
5819;SDS011;2936;47.348;9.640;2023-04-08T10:20:43;8.73;;;7.82;;
5819;SDS011;2936;47.348;9.640;2023-04-08T10:23:11;9.00;;;8.20;;
5819;SDS011;2936;47.348;9.640;2023-04-08T10:25:39;10.98;;;8.10;;
5819;SDS011;2936;47.348;9.640;2023-04-08T10:28:22;9.30;;;8.50;;
5819;SDS011;2936;47.348;9.640;2023-04-08T10:30:52;9.05;;;8.25;;
5819;SDS011;2936;47.348;9.640;2023-04-08T10:33:20;8.20;;;7.60;;
5819;SDS011;2936;47.348;9.640;2023-04-08T10:35:49;9.07;;;8.20;;
5819;SDS011;2936;47.348;9.640;2023-04-08T10:38:18;7.68;;;6.97;;
5819;SDS011;2936;47.348;9.640;2023-04-08T10:40:46;10.00;;;8.80;;
5819;SDS011;2936;47.348;9.640;2023-04-08T10:43:15;8.75;;;8.05;;
5819;SDS011;2936;47.348;9.640;2023-04-08T10:45:43;9.98;;;9.07;;
5819;SDS011;2936;47.348;9.640;2023-04-08T10:48:17;8.80;;;8.00;;
5819;SDS011;2936;47.348;9.640;2023-04-08T10:50:52;8.57;;;7.70;;
5819;SDS011;2936;47.348;9.640;2023-04-08T10:53:26;8.60;;;7.82;;
5819;SDS011;2936;47.348;9.640;2023-04-08T10:55:59;10.00;;;9.00;;
5819;SDS011;2936;47.348;9.640;2023-04-08T10:58:30;11.90;;;7.60;;
5819;SDS011;2936;47.348;9.640;2023-04-08T11:01:02;7.43;;;6.90;;
5819;SDS011;2936;47.348;9.640;2023-04-08T11:03:32;8.82;;;7.95;;
5819;SDS011;2936;47.348;9.640;2023-04-08T11:06:00;8.98;;;7.15;;
5819;SDS011;2936;47.348;9.640;2023-04-08T11:08:28;9.05;;;8.18;;
5819;SDS011;2936;47.348;9.640;2023-04-08T11:10:56;15.80;;;7.85;;
5819;SDS011;2936;47.348;9.640;2023-04-08T11:13:25;8.77;;;8.02;;
5819;SDS011;2936;47.348;9.640;2023-04-08T11:15:53;9.35;;;8.43;;
5819;SDS011;2936;47.348;9.640;2023-04-08T11:18:21;9.38;;;8.43;;
5819;SDS011;2936;47.348;9.640;2023-04-08T11:20:50;11.82;;;8.73;;
5819;SDS011;2936;47.348;9.640;2023-04-08T11:23:18;9.10;;;8.10;;
5819;SDS011;2936;47.348;9.640;2023-04-08T11:25:47;8.50;;;7.80;;
5819;SDS011;2936;47.348;9.640;2023-04-08T11:28:14;8.73;;;7.55;;
5819;SDS011;2936;47.348;9.640;2023-04-08T11:30:42;8.50;;;7.50;;
5819;SDS011;2936;47.348;9.640;2023-04-08T11:33:12;8.85;;;7.95;;
5819;SDS011;2936;47.348;9.640;2023-04-08T11:35:41;7.63;;;6.97;;
5819;SDS011;2936;47.348;9.640;2023-04-08T11:38:10;7.10;;;6.45;;
5819;SDS011;2936;47.348;9.640;2023-04-08T11:40:38;8.23;;;7.50;;
5819;SDS011;2936;47.348;9.640;2023-04-08T11:43:08;7.63;;;6.93;;
5819;SDS011;2936;47.348;9.640;2023-04-08T11:45:37;7.70;;;7.00;;
5819;SDS011;2936;47.348;9.640;2023-04-08T11:48:07;7.38;;;6.65;;
5819;SDS011;2936;47.348;9.640;2023-04-08T11:50:35;7.13;;;6.53;;
5819;SDS011;2936;47.348;9.640;2023-04-08T11:53:02;7.32;;;6.72;;
5819;SDS011;2936;47.348;9.640;2023-04-08T11:55:31;7.63;;;6.93;;
5819;SDS011;2936;47.348;9.640;2023-04-08T11:58:00;8.32;;;7.53;;
5819;SDS011;2936;47.348;9.640;2023-04-08T12:00:28;8.48;;;7.63;;
5819;SDS011;2936;47.348;9.640;2023-04-08T12:02:57;13.40;;;8.40;;
5819;SDS011;2936;47.348;9.640;2023-04-08T12:05:24;9.30;;;8.40;;
5819;SDS011;2936;47.348;9.640;2023-04-08T12:07:52;10.30;;;9.18;;
5819;SDS011;2936;47.348;9.640;2023-04-08T12:10:19;9.70;;;8.70;;
5819;SDS011;2936;47.348;9.640;2023-04-08T12:12:50;10.52;;;9.52;;
5819;SDS011;2936;47.348;9.640;2023-04-08T12:15:18;9.98;;;8.98;;
5819;SDS011;2936;47.348;9.640;2023-04-08T12:17:45;10.73;;;8.77;;
5819;SDS011;2936;47.348;9.640;2023-04-08T12:20:13;14.55;;;10.80;;
5819;SDS011;2936;47.348;9.640;2023-04-08T12:22:41;9.00;;;8.10;;
5819;SDS011;2936;47.348;9.640;2023-04-08T12:25:09;12.68;;;8.70;;
5819;SDS011;2936;47.348;9.640;2023-04-08T12:27:36;8.10;;;7.40;;
5819;SDS011;2936;47.348;9.640;2023-04-08T12:30:06;8.00;;;7.03;;
5819;SDS011;2936;47.348;9.640;2023-04-08T12:32:33;10.30;;;8.93;;
5819;SDS011;2936;47.348;9.640;2023-04-08T12:35:01;10.77;;;9.65;;
5819;SDS011;2936;47.348;9.640;2023-04-08T12:37:28;9.90;;;8.77;;
5819;SDS011;2936;47.348;9.640;2023-04-08T12:39:57;10.80;;;9.70;;
5819;SDS011;2936;47.348;9.640;2023-04-08T12:42:24;11.18;;;9.95;;
5819;SDS011;2936;47.348;9.640;2023-04-08T12:44:52;13.55;;;9.90;;
5819;SDS011;2936;47.348;9.640;2023-04-08T12:47:22;11.40;;;10.20;;
5819;SDS011;2936;47.348;9.640;2023-04-08T12:49:49;11.82;;;10.63;;
5819;SDS011;2936;47.348;9.640;2023-04-08T12:52:17;11.18;;;9.98;;
5819;SDS011;2936;47.348;9.640;2023-04-08T12:54:44;14.15;;;10.60;;
5819;SDS011;2936;47.348;9.640;2023-04-08T12:57:11;12.27;;;10.55;;
5819;SDS011;2936;47.348;9.640;2023-04-08T12:59:39;13.30;;;11.00;;
5819;SDS011;2936;47.348;9.640;2023-04-08T13:02:07;14.30;;;10.80;;
5819;SDS011;2936;47.348;9.640;2023-04-08T13:04:35;11.25;;;10.10;;
5819;SDS011;2936;47.348;9.640;2023-04-08T13:07:03;13.88;;;10.85;;
5819;SDS011;2936;47.348;9.640;2023-04-08T13:09:31;14.00;;;10.60;;
5819;SDS011;2936;47.348;9.640;2023-04-08T13:11:59;15.07;;;11.73;;
5819;SDS011;2936;47.348;9.640;2023-04-08T13:14:26;11.50;;;10.30;;
5819;SDS011;2936;47.348;9.640;2023-04-08T13:16:54;13.38;;;10.93;;
5819;SDS011;2936;47.348;9.640;2023-04-08T13:19:22;12.25;;;11.05;;
5819;SDS011;2936;47.348;9.640;2023-04-08T13:21:51;12.38;;;11.18;;
5819;SDS011;2936;47.348;9.640;2023-04-08T13:24:18;11.20;;;9.45;;
5819;SDS011;2936;47.348;9.640;2023-04-08T13:26:46;12.80;;;10.45;;
5819;SDS011;2936;47.348;9.640;2023-04-08T13:29:13;10.95;;;9.57;;
5819;SDS011;2936;47.348;9.640;2023-04-08T13:31:41;11.23;;;10.00;;
5819;SDS011;2936;47.348;9.640;2023-04-08T13:34:08;12.05;;;10.65;;
5819;SDS011;2936;47.348;9.640;2023-04-08T13:36:36;13.98;;;11.27;;
5819;SDS011;2936;47.348;9.640;2023-04-08T13:39:05;13.38;;;11.35;;
5819;SDS011;2936;47.348;9.640;2023-04-08T13:41:32;12.05;;;10.13;;
5819;SDS011;2936;47.348;9.640;2023-04-08T13:44:00;11.70;;;10.48;;
5819;SDS011;2936;47.348;9.640;2023-04-08T13:46:28;11.70;;;9.68;;
5819;SDS011;2936;47.348;9.640;2023-04-08T13:48:55;14.05;;;10.85;;
5819;SDS011;2936;47.348;9.640;2023-04-08T13:51:23;12.75;;;11.05;;
5819;SDS011;2936;47.348;9.640;2023-04-08T13:53:51;14.25;;;12.00;;
5819;SDS011;2936;47.348;9.640;2023-04-08T13:56:20;12.32;;;9.88;;
5819;SDS011;2936;47.348;9.640;2023-04-08T13:58:47;11.93;;;10.73;;
5819;SDS011;2936;47.348;9.640;2023-04-08T14:01:15;12.50;;;11.18;;
5819;SDS011;2936;47.348;9.640;2023-04-08T14:03:42;13.93;;;12.20;;
5819;SDS011;2936;47.348;9.640;2023-04-08T14:06:10;13.23;;;11.55;;
5819;SDS011;2936;47.348;9.640;2023-04-08T14:08:37;13.07;;;11.70;;
5819;SDS011;2936;47.348;9.640;2023-04-08T14:11:05;14.60;;;12.38;;
5819;SDS011;2936;47.348;9.640;2023-04-08T14:13:34;15.60;;;12.75;;
5819;SDS011;2936;47.348;9.640;2023-04-08T14:16:01;16.58;;;13.60;;
5819;SDS011;2936;47.348;9.640;2023-04-08T14:18:29;16.20;;;13.35;;
5819;SDS011;2936;47.348;9.640;2023-04-08T14:20:56;16.35;;;13.40;;
5819;SDS011;2936;47.348;9.640;2023-04-08T14:23:24;14.95;;;12.55;;
5819;SDS011;2936;47.348;9.640;2023-04-08T14:25:51;17.98;;;13.85;;
5819;SDS011;2936;47.348;9.640;2023-04-08T14:28:19;18.48;;;13.90;;
5819;SDS011;2936;47.348;9.640;2023-04-08T14:30:48;18.25;;;14.27;;
5819;SDS011;2936;47.348;9.640;2023-04-08T14:33:15;17.38;;;13.98;;
5819;SDS011;2936;47.348;9.640;2023-04-08T14:35:43;18.48;;;13.32;;
5819;SDS011;2936;47.348;9.640;2023-04-08T14:38:10;20.67;;;15.02;;
5819;SDS011;2936;47.348;9.640;2023-04-08T14:40:38;16.90;;;13.88;;
5819;SDS011;2936;47.348;9.640;2023-04-08T14:43:05;15.30;;;13.27;;
5819;SDS011;2936;47.348;9.640;2023-04-08T14:45:33;21.23;;;13.70;;
5819;SDS011;2936;47.348;9.640;2023-04-08T14:48:02;19.83;;;15.02;;
5819;SDS011;2936;47.348;9.640;2023-04-08T14:50:29;24.05;;;16.20;;
5819;SDS011;2936;47.348;9.640;2023-04-08T14:52:57;20.00;;;15.13;;
5819;SDS011;2936;47.348;9.640;2023-04-08T14:55:25;19.65;;;14.45;;
5819;SDS011;2936;47.348;9.640;2023-04-08T14:57:52;26.65;;;18.10;;
5819;SDS011;2936;47.348;9.640;2023-04-08T15:00:20;19.80;;;14.98;;
5819;SDS011;2936;47.348;9.640;2023-04-08T15:02:47;15.75;;;12.18;;
5819;SDS011;2936;47.348;9.640;2023-04-08T15:05:16;15.60;;;11.23;;
5819;SDS011;2936;47.348;9.640;2023-04-08T15:07:44;13.35;;;10.90;;
5819;SDS011;2936;47.348;9.640;2023-04-08T15:10:12;14.73;;;12.20;;
5819;SDS011;2936;47.348;9.640;2023-04-08T15:12:40;8.90;;;8.00;;
5819;SDS011;2936;47.348;9.640;2023-04-08T15:15:08;9.43;;;8.48;;
5819;SDS011;2936;47.348;9.640;2023-04-08T15:17:35;9.50;;;8.60;;